KBBB/BBB METAR and TAF weather

Enter ICAO airport designator
Station Type Date Time Source
KBBB METAR 2019/04/25 22:15 UTC NOAA

KBBB 252215Z AUTO 35013G24KT 10SM CLR 18/00 A2993 RMK AO2


Station Type Date Time Source
KBBB Decoded METAR 2019/04/25 22:15 UTC NOAA

Benson Municipal, MN, United States (KBBB) 45-19N 095-39W
Apr 25, 2019 - 06:15 PM EDT / 2019.04.25 2215 UTC
Wind: from the N (350 degrees) at 15 MPH (13 KT) gusting to 28 MPH (24 KT):0
Visibility: 10 mile(s):0
Sky conditions: clear
Temperature: 64 F (18 C)
Dew Point: 32 F (0 C)
Relative Humidity: 29%
Pressure (altimeter): 29.93 in. Hg (1013 hPa)
ob: KBBB 252215Z AUTO 35013G24KT 10SM CLR 18/00 A2993 RMK AO2
cycle: 22

Station Type Date Time Source
KBBB TAF UTC NOAA

Error!

Example: see airport list